JBU1742 TJSJ-KJAX
Flight info
| Callsign | JBU1742 |
|---|---|
| Flight time | 2h 53m |
| Altitude | 34000 |
| Route | ACONY3 SAPPO Y280 SUMAC DCT ZFP Y624 FOMGU DCT HAINY QUBEN2 |
| Aircraft | A321/M-SDE3FGHIRWY/LB1 |
Departure
| Time | 2026-05-08 02:08 |
|---|---|
| Airport | Luis Munoz Marin International Airport (TJSJ) |
Arrival
| Time | 2026-05-08 05:02 |
|---|---|
| Airport | Jacksonville International Airport (KJAX) |
| Time | Latitude | Longitude | Altitude | Speed | Heading |
|---|---|---|---|---|---|
| 2026-05-08 01:35 | 18.43567 | -66.00416 | 17 ft | 0 kts | 1° |
| 2026-05-08 01:56 | 18.43562 | -66.00417 | 17 ft | 4 kts | 0° |
| 2026-05-08 01:56 | 18.43537 | -66.00417 | 17 ft | 2 kts | 4° |
| 2026-05-08 01:56 | 18.43513 | -66.00416 | 17 ft | 4 kts | 342° |
| 2026-05-08 01:56 | 18.43490 | -66.00403 | 17 ft | 4 kts | 310° |
| 2026-05-08 01:57 | 18.43476 | -66.00379 | 17 ft | 4 kts | 290° |
| 2026-05-08 01:57 | 18.43467 | -66.00353 | 17 ft | 3 kts | 298° |
| 2026-05-08 01:57 | 18.43466 | -66.00350 | 17 ft | 0 kts | 300° |
| 2026-05-08 02:00 | 18.43466 | -66.00351 | 17 ft | 1 kts | 300° |
| 2026-05-08 02:00 | 18.43467 | -66.00355 | 17 ft | 0 kts | 282° |
| 2026-05-08 02:01 | 18.43467 | -66.00361 | 17 ft | 2 kts | 271° |
| 2026-05-08 02:01 | 18.43467 | -66.00390 | 17 ft | 5 kts | 269° |
| 2026-05-08 02:01 | 18.43466 | -66.00427 | 17 ft | 5 kts | 269° |
| 2026-05-08 02:01 | 18.43466 | -66.00466 | 17 ft | 6 kts | 269° |
| 2026-05-08 02:02 | 18.43465 | -66.00511 | 17 ft | 6 kts | 269° |
| 2026-05-08 02:02 | 18.43465 | -66.00561 | 17 ft | 8 kts | 270° |
| 2026-05-08 02:02 | 18.43465 | -66.00619 | 17 ft | 8 kts | 271° |
| 2026-05-08 02:02 | 18.43466 | -66.00682 | 17 ft | 9 kts | 271° |
| 2026-05-08 02:03 | 18.43468 | -66.00748 | 17 ft | 9 kts | 271° |
| 2026-05-08 02:03 | 18.43466 | -66.00821 | 17 ft | 11 kts | 268° |
| 2026-05-08 02:03 | 18.43465 | -66.00907 | 17 ft | 12 kts | 269° |
| 2026-05-08 02:03 | 18.43465 | -66.00995 | 17 ft | 12 kts | 270° |
| 2026-05-08 02:04 | 18.43466 | -66.01084 | 17 ft | 13 kts | 270° |
| 2026-05-08 02:04 | 18.43466 | -66.01178 | 17 ft | 13 kts | 270° |
| 2026-05-08 02:04 | 18.43467 | -66.01275 | 17 ft | 13 kts | 270° |
| 2026-05-08 02:04 | 18.43467 | -66.01373 | 17 ft | 13 kts | 270° |
| 2026-05-08 02:05 | 18.43508 | -66.01434 | 17 ft | 11 kts | 348° |
| 2026-05-08 02:05 | 18.43584 | -66.01439 | 17 ft | 11 kts | 359° |
| 2026-05-08 02:05 | 18.43662 | -66.01437 | 17 ft | 12 kts | 1° |
| 2026-05-08 02:05 | 18.43743 | -66.01446 | 17 ft | 12 kts | 339° |
| 2026-05-08 02:06 | 18.43755 | -66.01505 | 17 ft | 7 kts | 266° |
| 2026-05-08 02:06 | 18.43756 | -66.01512 | 17 ft | 0 kts | 281° |
| 2026-05-08 02:06 | 18.43757 | -66.01513 | 17 ft | 1 kts | 282° |
| 2026-05-08 02:06 | 18.43759 | -66.01519 | 17 ft | 2 kts | 294° |
| 2026-05-08 02:07 | 18.43779 | -66.01545 | 18 ft | 8 kts | 313° |
| 2026-05-08 02:07 | 18.43841 | -66.01561 | 17 ft | 12 kts | 40° |
| 2026-05-08 02:07 | 18.43859 | -66.01528 | 17 ft | 7 kts | 66° |
| 2026-05-08 02:07 | 18.43978 | -66.01233 | 17 ft | 78 kts | 66° |
| 2026-05-08 02:08 | 18.44271 | -66.00505 | 19 ft | 136 kts | 67° |
| 2026-05-08 02:08 | 18.44685 | -65.99484 | 161 ft | 166 kts | 68° |
| 2026-05-08 02:08 | 18.45179 | -65.98435 | 848 ft | 162 kts | 54° |
| 2026-05-08 02:08 | 18.46122 | -65.97775 | 1277 ft | 172 kts | 19° |
| 2026-05-08 02:09 | 18.47392 | -65.97743 | 1427 ft | 198 kts | 346° |
| 2026-05-08 02:09 | 18.48616 | -65.98569 | 1584 ft | 224 kts | 315° |
| 2026-05-08 02:09 | 18.49743 | -65.99812 | 1685 ft | 247 kts | 314° |
| 2026-05-08 02:09 | 18.50970 | -66.01194 | 2020 ft | 264 kts | 314° |
| 2026-05-08 02:10 | 18.52236 | -66.02625 | 2624 ft | 270 kts | 314° |
| 2026-05-08 02:10 | 18.53532 | -66.04078 | 3227 ft | 275 kts | 315° |
| 2026-05-08 02:10 | 18.54851 | -66.05552 | 3848 ft | 279 kts | 316° |
| 2026-05-08 02:10 | 18.56192 | -66.07041 | 4527 ft | 281 kts | 315° |
| 2026-05-08 02:11 | 18.57515 | -66.08515 | 5242 ft | 280 kts | 315° |
| 2026-05-08 02:11 | 18.58855 | -66.10012 | 5958 ft | 281 kts | 316° |
| 2026-05-08 02:11 | 18.60195 | -66.11507 | 6669 ft | 281 kts | 315° |
| 2026-05-08 02:11 | 18.61540 | -66.13001 | 7269 ft | 281 kts | 315° |
| 2026-05-08 02:12 | 18.62891 | -66.14499 | 7877 ft | 283 kts | 316° |
| 2026-05-08 02:12 | 18.64250 | -66.16007 | 8469 ft | 285 kts | 315° |
| 2026-05-08 02:12 | 18.65617 | -66.17525 | 9041 ft | 286 kts | 316° |
| 2026-05-08 02:12 | 18.66991 | -66.19049 | 9650 ft | 287 kts | 316° |
| 2026-05-08 02:13 | 18.68356 | -66.20567 | 10138 ft | 293 kts | 315° |
| 2026-05-08 02:13 | 18.69790 | -66.22162 | 10271 ft | 311 kts | 315° |
| 2026-05-08 02:13 | 18.71323 | -66.23864 | 10388 ft | 329 kts | 315° |
| 2026-05-08 02:13 | 18.72943 | -66.25663 | 10513 ft | 346 kts | 315° |
| 2026-05-08 02:14 | 18.74635 | -66.27546 | 10687 ft | 359 kts | 315° |
| 2026-05-08 02:14 | 18.76367 | -66.29476 | 11086 ft | 365 kts | 315° |
| 2026-05-08 02:14 | 18.78113 | -66.31422 | 11621 ft | 366 kts | 315° |
| 2026-05-08 02:14 | 18.79864 | -66.33373 | 12167 ft | 367 kts | 314° |
| 2026-05-08 02:15 | 18.81629 | -66.35338 | 12633 ft | 370 kts | 315° |
| 2026-05-08 02:15 | 18.83382 | -66.37289 | 13157 ft | 372 kts | 314° |
| 2026-05-08 02:15 | 18.85171 | -66.39284 | 13621 ft | 375 kts | 314° |
| 2026-05-08 02:15 | 18.86967 | -66.41293 | 14115 ft | 377 kts | 314° |
| 2026-05-08 02:16 | 18.88772 | -66.43313 | 14546 ft | 380 kts | 314° |
| 2026-05-08 02:16 | 18.90594 | -66.45348 | 14989 ft | 382 kts | 314° |
| 2026-05-08 02:16 | 18.92430 | -66.47395 | 15399 ft | 386 kts | 314° |
| 2026-05-08 02:16 | 18.94311 | -66.49434 | 15805 ft | 389 kts | 316° |
| 2026-05-08 02:17 | 18.96254 | -66.51433 | 16202 ft | 392 kts | 317° |
| 2026-05-08 02:17 | 18.98217 | -66.53395 | 16574 ft | 396 kts | 317° |
| 2026-05-08 02:17 | 19.00232 | -66.55395 | 17002 ft | 398 kts | 317° |
| 2026-05-08 02:17 | 19.02258 | -66.57411 | 17375 ft | 402 kts | 318° |
| 2026-05-08 02:18 | 19.04292 | -66.59449 | 17796 ft | 405 kts | 317° |
| 2026-05-08 02:18 | 19.06337 | -66.61517 | 18139 ft | 409 kts | 317° |
| 2026-05-08 02:18 | 19.08329 | -66.63680 | 18473 ft | 413 kts | 310° |
| 2026-05-08 02:18 | 19.10161 | -66.66041 | 18796 ft | 417 kts | 310° |
| 2026-05-08 02:19 | 19.12004 | -66.68417 | 19141 ft | 419 kts | 310° |
| 2026-05-08 02:19 | 19.13862 | -66.70801 | 19497 ft | 421 kts | 310° |
| 2026-05-08 02:19 | 19.15702 | -66.73161 | 19837 ft | 423 kts | 310° |
| 2026-05-08 02:19 | 19.17578 | -66.75568 | 20168 ft | 424 kts | 311° |
| 2026-05-08 02:20 | 19.19456 | -66.77983 | 20489 ft | 426 kts | 311° |
| 2026-05-08 02:20 | 19.21345 | -66.80416 | 20779 ft | 429 kts | 311° |
| 2026-05-08 02:20 | 19.23242 | -66.82863 | 21084 ft | 431 kts | 311° |
| 2026-05-08 02:20 | 19.25153 | -66.85322 | 21370 ft | 434 kts | 311° |
| 2026-05-08 02:21 | 19.27073 | -66.87791 | 21665 ft | 436 kts | 311° |
| 2026-05-08 02:21 | 19.29003 | -66.90271 | 21980 ft | 437 kts | 311° |
| 2026-05-08 02:21 | 19.30911 | -66.92723 | 22282 ft | 438 kts | 311° |
| 2026-05-08 02:21 | 19.32850 | -66.95221 | 22578 ft | 440 kts | 311° |
| 2026-05-08 02:22 | 19.34794 | -66.97729 | 22864 ft | 442 kts | 311° |
| 2026-05-08 02:22 | 19.36745 | -67.00252 | 23127 ft | 444 kts | 311° |
| 2026-05-08 02:22 | 19.38705 | -67.02785 | 23398 ft | 445 kts | 311° |
| 2026-05-08 02:22 | 19.40675 | -67.05327 | 23667 ft | 447 kts | 311° |
| 2026-05-08 02:23 | 19.42652 | -67.07881 | 23886 ft | 449 kts | 311° |
| 2026-05-08 02:23 | 19.44635 | -67.10444 | 24109 ft | 451 kts | 311° |
| 2026-05-08 02:23 | 19.46625 | -67.13016 | 24345 ft | 452 kts | 311° |
| 2026-05-08 02:23 | 19.48594 | -67.15563 | 24577 ft | 454 kts | 311° |
| 2026-05-08 02:24 | 19.50597 | -67.18156 | 24813 ft | 455 kts | 311° |
| 2026-05-08 02:24 | 19.52603 | -67.20757 | 25045 ft | 457 kts | 311° |
| 2026-05-08 02:24 | 19.54617 | -67.23370 | 25265 ft | 458 kts | 311° |
| 2026-05-08 02:24 | 19.56638 | -67.25989 | 25486 ft | 460 kts | 311° |
| 2026-05-08 02:25 | 19.58670 | -67.28620 | 25705 ft | 462 kts | 311° |
| 2026-05-08 02:25 | 19.60710 | -67.31256 | 25924 ft | 463 kts | 311° |
| 2026-05-08 02:25 | 19.62756 | -67.33899 | 26146 ft | 465 kts | 311° |
| 2026-05-08 02:25 | 19.64781 | -67.36522 | 26347 ft | 466 kts | 311° |
| 2026-05-08 02:26 | 19.66833 | -67.39191 | 26560 ft | 468 kts | 311° |
| 2026-05-08 02:26 | 19.68892 | -67.41873 | 26771 ft | 470 kts | 311° |
| 2026-05-08 02:26 | 19.70959 | -67.44567 | 26985 ft | 471 kts | 311° |
| 2026-05-08 02:26 | 19.73031 | -67.47267 | 27199 ft | 473 kts | 311° |
| 2026-05-08 02:27 | 19.75112 | -67.49976 | 27418 ft | 474 kts | 311° |
| 2026-05-08 02:27 | 19.77200 | -67.52698 | 27633 ft | 476 kts | 311° |
| 2026-05-08 02:27 | 19.79293 | -67.55428 | 27858 ft | 478 kts | 311° |
| 2026-05-08 02:27 | 19.81395 | -67.58168 | 28067 ft | 479 kts | 311° |
| 2026-05-08 02:28 | 19.83476 | -67.60874 | 28324 ft | 479 kts | 311° |
| 2026-05-08 02:28 | 19.85582 | -67.63615 | 28630 ft | 479 kts | 311° |
| 2026-05-08 02:28 | 19.87687 | -67.66358 | 28936 ft | 478 kts | 311° |
| 2026-05-08 02:28 | 19.89786 | -67.69097 | 29240 ft | 478 kts | 311° |
| 2026-05-08 02:29 | 19.91879 | -67.71834 | 29523 ft | 477 kts | 311° |
| 2026-05-08 02:29 | 19.93970 | -67.74570 | 29836 ft | 477 kts | 311° |
| 2026-05-08 02:29 | 19.96061 | -67.77302 | 30132 ft | 476 kts | 311° |
| 2026-05-08 02:29 | 19.98150 | -67.80032 | 30391 ft | 475 kts | 312° |
| 2026-05-08 02:30 | 20.00233 | -67.82754 | 30671 ft | 474 kts | 312° |
| 2026-05-08 02:30 | 20.02281 | -67.85430 | 30964 ft | 472 kts | 312° |
| 2026-05-08 02:30 | 20.04344 | -67.88131 | 31278 ft | 469 kts | 312° |
| 2026-05-08 02:30 | 20.06395 | -67.90824 | 31600 ft | 467 kts | 312° |
| 2026-05-08 02:31 | 20.08434 | -67.93501 | 31927 ft | 464 kts | 312° |
| 2026-05-08 02:31 | 20.10459 | -67.96159 | 32257 ft | 461 kts | 313° |
| 2026-05-08 02:31 | 20.12473 | -67.98801 | 32568 ft | 458 kts | 313° |
| 2026-05-08 02:31 | 20.14478 | -68.01428 | 32898 ft | 456 kts | 313° |
| 2026-05-08 02:32 | 20.16468 | -68.04043 | 33226 ft | 453 kts | 313° |
| 2026-05-08 02:32 | 20.18447 | -68.06642 | 33539 ft | 450 kts | 313° |
| 2026-05-08 02:32 | 20.20389 | -68.09191 | 33843 ft | 448 kts | 313° |
| 2026-05-08 02:32 | 20.22346 | -68.11764 | 34062 ft | 447 kts | 313° |
| 2026-05-08 02:33 | 20.26238 | -68.16887 | 34098 ft | 444 kts | 313° |
| 2026-05-08 02:33 | 20.30118 | -68.21995 | 34103 ft | 443 kts | 313° |
| 2026-05-08 02:34 | 20.33968 | -68.27063 | 34109 ft | 443 kts | 313° |
| 2026-05-08 02:34 | 20.37838 | -68.32166 | 34108 ft | 443 kts | 313° |
| 2026-05-08 02:35 | 20.41707 | -68.37275 | 34103 ft | 443 kts | 312° |
| 2026-05-08 02:35 | 20.45309 | -68.42616 | 34112 ft | 446 kts | 306° |
| 2026-05-08 02:36 | 20.48610 | -68.48223 | 34121 ft | 446 kts | 306° |
| 2026-05-08 02:36 | 20.51889 | -68.53796 | 34110 ft | 446 kts | 306° |
| 2026-05-08 02:37 | 20.55191 | -68.59404 | 34122 ft | 447 kts | 305° |
| 2026-05-08 02:37 | 20.58491 | -68.65020 | 34127 ft | 447 kts | 305° |
| 2026-05-08 02:38 | 20.61782 | -68.70639 | 34131 ft | 447 kts | 305° |
| 2026-05-08 02:38 | 20.65052 | -68.76222 | 34131 ft | 446 kts | 305° |
| 2026-05-08 02:39 | 20.68340 | -68.81849 | 34126 ft | 446 kts | 305° |
| 2026-05-08 02:39 | 20.71627 | -68.87467 | 34124 ft | 446 kts | 305° |
| 2026-05-08 02:40 | 20.74914 | -68.93086 | 34124 ft | 446 kts | 305° |
| 2026-05-08 02:40 | 20.78199 | -68.98706 | 34123 ft | 446 kts | 305° |
| 2026-05-08 02:41 | 20.81456 | -69.04283 | 34125 ft | 445 kts | 304° |
| 2026-05-08 02:41 | 20.84722 | -69.09893 | 34125 ft | 444 kts | 304° |
| 2026-05-08 02:42 | 20.87985 | -69.15500 | 34131 ft | 444 kts | 304° |
| 2026-05-08 02:42 | 20.91249 | -69.21103 | 34122 ft | 444 kts | 304° |
| 2026-05-08 02:43 | 20.94483 | -69.26673 | 34121 ft | 444 kts | 304° |
| 2026-05-08 02:43 | 20.97734 | -69.32281 | 34123 ft | 443 kts | 304° |
| 2026-05-08 02:44 | 21.00988 | -69.37889 | 34128 ft | 444 kts | 304° |
| 2026-05-08 02:44 | 21.03142 | -69.41605 | 34127 ft | 444 kts | 304° |
| 2026-05-08 02:46 | 21.05808 | -69.45878 | 34127 ft | 443 kts | 305° |
| 2026-05-08 02:46 | 21.09035 | -69.51499 | 34127 ft | 443 kts | 302° |
| 2026-05-08 02:47 | 21.12152 | -69.57149 | 34119 ft | 444 kts | 302° |
| 2026-05-08 02:47 | 21.14332 | -69.61025 | 34120 ft | 444 kts | 303° |
| 2026-05-08 02:48 | 21.17572 | -69.66657 | 34115 ft | 444 kts | 303° |
| 2026-05-08 02:48 | 21.20839 | -69.72256 | 34126 ft | 445 kts | 303° |
| 2026-05-08 02:49 | 21.24079 | -69.77848 | 34126 ft | 444 kts | 303° |
| 2026-05-08 02:49 | 21.27318 | -69.83489 | 34122 ft | 444 kts | 303° |
| 2026-05-08 02:50 | 21.30546 | -69.89129 | 34116 ft | 444 kts | 303° |
| 2026-05-08 02:50 | 21.33784 | -69.94773 | 34115 ft | 444 kts | 303° |
| 2026-05-08 02:51 | 21.36933 | -70.00257 | 34117 ft | 445 kts | 303° |
| 2026-05-08 02:51 | 21.40157 | -70.05892 | 34117 ft | 445 kts | 303° |
| 2026-05-08 02:52 | 21.43394 | -70.11556 | 34119 ft | 445 kts | 303° |
| 2026-05-08 02:52 | 21.46639 | -70.17223 | 34120 ft | 446 kts | 303° |
| 2026-05-08 02:53 | 21.49876 | -70.22899 | 34107 ft | 446 kts | 303° |
| 2026-05-08 02:53 | 21.53091 | -70.28550 | 34109 ft | 447 kts | 303° |
| 2026-05-08 02:54 | 21.56331 | -70.34248 | 34114 ft | 447 kts | 303° |
| 2026-05-08 02:54 | 21.59578 | -70.39945 | 34125 ft | 447 kts | 303° |
| 2026-05-08 02:55 | 21.64448 | -70.48490 | 34124 ft | 447 kts | 303° |
| 2026-05-08 02:56 | 21.67661 | -70.54162 | 34114 ft | 447 kts | 303° |
| 2026-05-08 02:56 | 21.70892 | -70.59872 | 34120 ft | 447 kts | 303° |
| 2026-05-08 02:57 | 21.74132 | -70.65583 | 34124 ft | 447 kts | 303° |
| 2026-05-08 02:57 | 21.77371 | -70.71299 | 34122 ft | 448 kts | 303° |
| 2026-05-08 02:58 | 21.80586 | -70.76989 | 34120 ft | 448 kts | 303° |
| 2026-05-08 02:58 | 21.83818 | -70.82714 | 34126 ft | 448 kts | 303° |
| 2026-05-08 02:59 | 21.87049 | -70.88444 | 34127 ft | 448 kts | 303° |
| 2026-05-08 02:59 | 21.90280 | -70.94177 | 34131 ft | 448 kts | 303° |
| 2026-05-08 03:00 | 21.93487 | -70.99871 | 34124 ft | 448 kts | 303° |
| 2026-05-08 03:00 | 21.96712 | -71.05613 | 34129 ft | 448 kts | 303° |
| 2026-05-08 03:01 | 21.99933 | -71.11353 | 34134 ft | 447 kts | 303° |
| 2026-05-08 03:01 | 22.03152 | -71.17085 | 34125 ft | 447 kts | 303° |
| 2026-05-08 03:02 | 22.06342 | -71.22769 | 34135 ft | 446 kts | 303° |
| 2026-05-08 03:02 | 22.09542 | -71.28497 | 34121 ft | 446 kts | 303° |
| 2026-05-08 03:03 | 22.12739 | -71.34223 | 34133 ft | 446 kts | 303° |
| 2026-05-08 03:03 | 22.15944 | -71.39947 | 34119 ft | 446 kts | 303° |
| 2026-05-08 03:04 | 22.19118 | -71.45632 | 34123 ft | 445 kts | 303° |
| 2026-05-08 03:04 | 22.22309 | -71.51358 | 34135 ft | 445 kts | 303° |
| 2026-05-08 03:05 | 22.25496 | -71.57093 | 34113 ft | 445 kts | 303° |
| 2026-05-08 03:05 | 22.28679 | -71.62832 | 34129 ft | 446 kts | 303° |
| 2026-05-08 03:06 | 22.31870 | -71.68576 | 34133 ft | 446 kts | 303° |
| 2026-05-08 03:06 | 22.35040 | -71.74279 | 34129 ft | 446 kts | 303° |
| 2026-05-08 03:07 | 22.38230 | -71.80022 | 34125 ft | 446 kts | 303° |
| 2026-05-08 03:07 | 22.41413 | -71.85775 | 34125 ft | 446 kts | 302° |
| 2026-05-08 03:08 | 22.44596 | -71.91536 | 34116 ft | 447 kts | 302° |
| 2026-05-08 03:08 | 22.47767 | -71.97268 | 34122 ft | 447 kts | 302° |
| 2026-05-08 03:09 | 22.50952 | -72.03052 | 34117 ft | 448 kts | 303° |
| 2026-05-08 03:09 | 22.54142 | -72.08837 | 34119 ft | 448 kts | 302° |
| 2026-05-08 03:10 | 22.57335 | -72.14625 | 34123 ft | 448 kts | 302° |
| 2026-05-08 03:10 | 22.60503 | -72.20382 | 34125 ft | 448 kts | 302° |
| 2026-05-08 03:11 | 22.63690 | -72.26190 | 34121 ft | 448 kts | 302° |
| 2026-05-08 03:11 | 22.66880 | -72.31991 | 34115 ft | 449 kts | 302° |
| 2026-05-08 03:12 | 22.70044 | -72.37766 | 34114 ft | 449 kts | 302° |
| 2026-05-08 03:12 | 22.73233 | -72.43587 | 34116 ft | 449 kts | 302° |
| 2026-05-08 03:13 | 22.76422 | -72.49405 | 34122 ft | 449 kts | 302° |
| 2026-05-08 03:13 | 22.79609 | -72.55227 | 34123 ft | 449 kts | 302° |
| 2026-05-08 03:14 | 22.82790 | -72.61058 | 34119 ft | 449 kts | 302° |
| 2026-05-08 03:14 | 22.85946 | -72.66849 | 34122 ft | 449 kts | 302° |
| 2026-05-08 03:15 | 22.89116 | -72.72683 | 34122 ft | 449 kts | 302° |
| 2026-05-08 03:15 | 22.92292 | -72.78515 | 34123 ft | 449 kts | 302° |
| 2026-05-08 03:16 | 22.95460 | -72.84356 | 34122 ft | 449 kts | 302° |
| 2026-05-08 03:16 | 22.98609 | -72.90163 | 34119 ft | 449 kts | 302° |
| 2026-05-08 03:17 | 23.01784 | -72.96011 | 34120 ft | 449 kts | 302° |
| 2026-05-08 03:17 | 23.04947 | -73.01861 | 34123 ft | 449 kts | 301° |
| 2026-05-08 03:18 | 23.08108 | -73.07715 | 34118 ft | 449 kts | 301° |
| 2026-05-08 03:18 | 23.11246 | -73.13529 | 34122 ft | 449 kts | 301° |
| 2026-05-08 03:19 | 23.14403 | -73.19383 | 34128 ft | 449 kts | 301° |
| 2026-05-08 03:19 | 23.17558 | -73.25237 | 34129 ft | 449 kts | 301° |
| 2026-05-08 03:20 | 23.20709 | -73.31087 | 34127 ft | 448 kts | 301° |
| 2026-05-08 03:20 | 23.23832 | -73.36890 | 34127 ft | 447 kts | 301° |
| 2026-05-08 03:21 | 23.26968 | -73.42729 | 34127 ft | 447 kts | 301° |
| 2026-05-08 03:21 | 23.30098 | -73.48568 | 34126 ft | 446 kts | 301° |
| 2026-05-08 03:22 | 23.33224 | -73.54401 | 34125 ft | 446 kts | 301° |
| 2026-05-08 03:22 | 23.36334 | -73.60197 | 34124 ft | 446 kts | 301° |
| 2026-05-08 03:23 | 23.39457 | -73.66033 | 34118 ft | 446 kts | 301° |
| 2026-05-08 03:23 | 23.42581 | -73.71876 | 34121 ft | 446 kts | 301° |
| 2026-05-08 03:24 | 23.45694 | -73.77723 | 34123 ft | 446 kts | 301° |
| 2026-05-08 03:24 | 23.48792 | -73.83573 | 34122 ft | 446 kts | 301° |
| 2026-05-08 03:25 | 23.51877 | -73.89382 | 34117 ft | 446 kts | 301° |
| 2026-05-08 03:25 | 23.54993 | -73.95229 | 34126 ft | 446 kts | 301° |
| 2026-05-08 03:26 | 23.58105 | -74.01070 | 34122 ft | 446 kts | 301° |
| 2026-05-08 03:26 | 23.61204 | -74.06917 | 34125 ft | 445 kts | 301° |
| 2026-05-08 03:27 | 23.64275 | -74.12721 | 34126 ft | 444 kts | 301° |
| 2026-05-08 03:27 | 23.67362 | -74.18559 | 34124 ft | 444 kts | 301° |
| 2026-05-08 03:28 | 23.70445 | -74.24404 | 34118 ft | 444 kts | 301° |
| 2026-05-08 03:28 | 23.73527 | -74.30239 | 34120 ft | 444 kts | 301° |
| 2026-05-08 03:29 | 23.76584 | -74.36040 | 34115 ft | 444 kts | 301° |
| 2026-05-08 03:29 | 23.79662 | -74.41888 | 34119 ft | 444 kts | 301° |
| 2026-05-08 03:30 | 23.84261 | -74.50645 | 34122 ft | 443 kts | 301° |
| 2026-05-08 03:31 | 23.90361 | -74.62295 | 34120 ft | 443 kts | 301° |
| 2026-05-08 03:32 | 23.94958 | -74.71056 | 34117 ft | 443 kts | 301° |
| 2026-05-08 03:32 | 23.98013 | -74.76901 | 34118 ft | 443 kts | 301° |
| 2026-05-08 03:33 | 24.01068 | -74.82749 | 34122 ft | 443 kts | 301° |
| 2026-05-08 03:33 | 24.04095 | -74.88563 | 34122 ft | 443 kts | 301° |
| 2026-05-08 03:34 | 24.07149 | -74.94419 | 34120 ft | 443 kts | 301° |
| 2026-05-08 03:34 | 24.09688 | -74.99284 | 34119 ft | 443 kts | 301° |
| 2026-05-08 03:35 | 24.13237 | -75.06136 | 34120 ft | 443 kts | 300° |
| 2026-05-08 03:35 | 24.16254 | -75.11963 | 34116 ft | 443 kts | 300° |
| 2026-05-08 03:36 | 24.19295 | -75.17820 | 34119 ft | 442 kts | 300° |
| 2026-05-08 03:36 | 24.22329 | -75.23683 | 34120 ft | 443 kts | 300° |
| 2026-05-08 03:37 | 24.24849 | -75.28561 | 34114 ft | 442 kts | 301° |
| 2026-05-08 03:37 | 24.28365 | -75.35377 | 34117 ft | 442 kts | 300° |
| 2026-05-08 03:38 | 24.31396 | -75.41238 | 34126 ft | 442 kts | 300° |
| 2026-05-08 03:38 | 24.33903 | -75.46108 | 34119 ft | 441 kts | 300° |
| 2026-05-08 03:39 | 24.36916 | -75.51974 | 34115 ft | 441 kts | 300° |
| 2026-05-08 03:39 | 24.40414 | -75.58783 | 34114 ft | 441 kts | 300° |
| 2026-05-08 03:40 | 24.42936 | -75.63692 | 34116 ft | 441 kts | 300° |
| 2026-05-08 03:40 | 24.45922 | -75.69519 | 34112 ft | 441 kts | 300° |
| 2026-05-08 03:41 | 24.48927 | -75.75381 | 34113 ft | 440 kts | 300° |
| 2026-05-08 03:41 | 24.51932 | -75.81251 | 34108 ft | 441 kts | 300° |
| 2026-05-08 03:42 | 24.54924 | -75.87126 | 34111 ft | 441 kts | 300° |
| 2026-05-08 03:42 | 24.57900 | -75.92966 | 34112 ft | 441 kts | 300° |
| 2026-05-08 03:43 | 24.60899 | -75.98846 | 34111 ft | 441 kts | 300° |
| 2026-05-08 03:43 | 24.63897 | -76.04728 | 34110 ft | 441 kts | 300° |
| 2026-05-08 03:44 | 24.66884 | -76.10614 | 34110 ft | 441 kts | 300° |
| 2026-05-08 03:44 | 24.69869 | -76.16498 | 34113 ft | 440 kts | 299° |
| 2026-05-08 03:45 | 24.72827 | -76.22337 | 34110 ft | 440 kts | 299° |
| 2026-05-08 03:45 | 24.75806 | -76.28217 | 34108 ft | 440 kts | 299° |
| 2026-05-08 03:46 | 24.78787 | -76.34094 | 34110 ft | 440 kts | 299° |
| 2026-05-08 03:46 | 24.81762 | -76.39979 | 34112 ft | 440 kts | 299° |
| 2026-05-08 03:47 | 24.84707 | -76.45831 | 34105 ft | 440 kts | 299° |
| 2026-05-08 03:47 | 24.87672 | -76.51721 | 34100 ft | 440 kts | 299° |
| 2026-05-08 03:48 | 24.90642 | -76.57612 | 34108 ft | 440 kts | 299° |
| 2026-05-08 03:48 | 24.93614 | -76.63519 | 34106 ft | 441 kts | 299° |
| 2026-05-08 03:49 | 24.96556 | -76.69387 | 34104 ft | 440 kts | 299° |
| 2026-05-08 03:49 | 24.99513 | -76.75296 | 34105 ft | 440 kts | 299° |
| 2026-05-08 03:50 | 25.02475 | -76.81210 | 34102 ft | 440 kts | 299° |
| 2026-05-08 03:50 | 25.05436 | -76.87127 | 34109 ft | 441 kts | 299° |
| 2026-05-08 03:51 | 25.08373 | -76.93005 | 34114 ft | 440 kts | 298° |
| 2026-05-08 03:51 | 25.11318 | -76.98921 | 34110 ft | 440 kts | 298° |
| 2026-05-08 03:52 | 25.14263 | -77.04830 | 34106 ft | 439 kts | 298° |
| 2026-05-08 03:52 | 25.17200 | -77.10739 | 34105 ft | 439 kts | 298° |
| 2026-05-08 03:53 | 25.20118 | -77.16608 | 34102 ft | 439 kts | 298° |
| 2026-05-08 03:53 | 25.23052 | -77.22521 | 34104 ft | 439 kts | 298° |
| 2026-05-08 03:54 | 25.26140 | -77.28754 | 34110 ft | 439 kts | 298° |
| 2026-05-08 03:54 | 25.29186 | -77.34544 | 34106 ft | 439 kts | 306° |
| 2026-05-08 03:55 | 25.33399 | -77.39414 | 34096 ft | 439 kts | 315° |
| 2026-05-08 03:55 | 25.37823 | -77.44071 | 34094 ft | 439 kts | 315° |
| 2026-05-08 03:56 | 25.42248 | -77.48735 | 34107 ft | 440 kts | 315° |
| 2026-05-08 03:56 | 25.46670 | -77.53394 | 34099 ft | 439 kts | 315° |
| 2026-05-08 03:57 | 25.51053 | -77.58024 | 34106 ft | 438 kts | 315° |
| 2026-05-08 03:57 | 25.55458 | -77.62675 | 34101 ft | 438 kts | 315° |
| 2026-05-08 03:58 | 25.59854 | -77.67327 | 34094 ft | 437 kts | 315° |
| 2026-05-08 03:58 | 25.64249 | -77.71980 | 34098 ft | 437 kts | 315° |
| 2026-05-08 03:59 | 25.68632 | -77.76624 | 34096 ft | 436 kts | 315° |
| 2026-05-08 03:59 | 25.72983 | -77.81245 | 34088 ft | 436 kts | 314° |
| 2026-05-08 04:00 | 25.77361 | -77.85900 | 34102 ft | 436 kts | 314° |
| 2026-05-08 04:00 | 25.81739 | -77.90546 | 34097 ft | 435 kts | 314° |
| 2026-05-08 04:01 | 25.86103 | -77.95185 | 34098 ft | 434 kts | 314° |
| 2026-05-08 04:01 | 25.90461 | -77.99829 | 34090 ft | 434 kts | 314° |
| 2026-05-08 04:02 | 25.94787 | -78.04447 | 34094 ft | 434 kts | 314° |
| 2026-05-08 04:02 | 25.99136 | -78.09092 | 34092 ft | 434 kts | 314° |
| 2026-05-08 04:03 | 26.03487 | -78.13736 | 34085 ft | 434 kts | 314° |
| 2026-05-08 04:03 | 26.09974 | -78.20681 | 34098 ft | 433 kts | 314° |
| 2026-05-08 04:04 | 26.14309 | -78.25333 | 34084 ft | 432 kts | 314° |
| 2026-05-08 04:04 | 26.18629 | -78.29970 | 34081 ft | 432 kts | 314° |
| 2026-05-08 04:05 | 26.22954 | -78.34614 | 34077 ft | 431 kts | 314° |
| 2026-05-08 04:05 | 26.27244 | -78.39225 | 34083 ft | 431 kts | 314° |
| 2026-05-08 04:06 | 26.31559 | -78.43867 | 34077 ft | 431 kts | 314° |
| 2026-05-08 04:06 | 26.35869 | -78.48517 | 34079 ft | 431 kts | 314° |
| 2026-05-08 04:07 | 26.40175 | -78.53164 | 34075 ft | 431 kts | 314° |
| 2026-05-08 04:07 | 26.44488 | -78.57815 | 34085 ft | 431 kts | 314° |
| 2026-05-08 04:08 | 26.48758 | -78.62426 | 34079 ft | 430 kts | 314° |
| 2026-05-08 04:08 | 26.53048 | -78.67081 | 34080 ft | 430 kts | 313° |
| 2026-05-08 04:09 | 26.56988 | -78.72049 | 34078 ft | 426 kts | 303° |
| 2026-05-08 04:09 | 26.60420 | -78.77452 | 34082 ft | 426 kts | 304° |
| 2026-05-08 04:10 | 26.63847 | -78.82810 | 34080 ft | 426 kts | 304° |
| 2026-05-08 04:10 | 26.67295 | -78.88197 | 34081 ft | 426 kts | 304° |
| 2026-05-08 04:11 | 26.70732 | -78.93599 | 34078 ft | 426 kts | 304° |
| 2026-05-08 04:11 | 26.74163 | -78.99008 | 34079 ft | 426 kts | 304° |
| 2026-05-08 04:12 | 26.77572 | -79.04386 | 34086 ft | 426 kts | 303° |
| 2026-05-08 04:12 | 26.80994 | -79.09784 | 34080 ft | 425 kts | 303° |
| 2026-05-08 04:13 | 26.84412 | -79.15174 | 34078 ft | 424 kts | 303° |
| 2026-05-08 04:13 | 26.87821 | -79.20564 | 34078 ft | 424 kts | 303° |
| 2026-05-08 04:14 | 26.91228 | -79.25950 | 34074 ft | 424 kts | 303° |
| 2026-05-08 04:14 | 26.94603 | -79.31304 | 34070 ft | 423 kts | 303° |
| 2026-05-08 04:15 | 26.97993 | -79.36696 | 34073 ft | 423 kts | 303° |
| 2026-05-08 04:15 | 27.01377 | -79.42088 | 34068 ft | 423 kts | 303° |
| 2026-05-08 04:16 | 27.04769 | -79.47475 | 34066 ft | 423 kts | 303° |
| 2026-05-08 04:16 | 27.08134 | -79.52833 | 34067 ft | 423 kts | 303° |
| 2026-05-08 04:17 | 27.11521 | -79.58224 | 34082 ft | 422 kts | 302° |
| 2026-05-08 04:17 | 27.14902 | -79.63609 | 34075 ft | 421 kts | 302° |
| 2026-05-08 04:18 | 27.18274 | -79.68988 | 34072 ft | 421 kts | 302° |
| 2026-05-08 04:18 | 27.21607 | -79.74329 | 34070 ft | 420 kts | 302° |
| 2026-05-08 04:19 | 27.24961 | -79.79707 | 34067 ft | 420 kts | 302° |
| 2026-05-08 04:19 | 27.27971 | -79.85296 | 34065 ft | 417 kts | 296° |
| 2026-05-08 04:20 | 27.30748 | -79.91013 | 34063 ft | 417 kts | 296° |
| 2026-05-08 04:20 | 27.33508 | -79.96695 | 34062 ft | 417 kts | 296° |
| 2026-05-08 04:21 | 27.36291 | -80.02416 | 34058 ft | 417 kts | 296° |
| 2026-05-08 04:21 | 27.39398 | -80.07917 | 34054 ft | 421 kts | 308° |
| 2026-05-08 04:22 | 27.43953 | -80.12127 | 34063 ft | 428 kts | 320° |
| 2026-05-08 04:22 | 27.48797 | -80.15942 | 34060 ft | 428 kts | 320° |
| 2026-05-08 04:23 | 27.53674 | -80.19793 | 34064 ft | 428 kts | 320° |
| 2026-05-08 04:23 | 27.58532 | -80.23654 | 34065 ft | 427 kts | 320° |
| 2026-05-08 04:24 | 27.63386 | -80.27512 | 34058 ft | 427 kts | 320° |
| 2026-05-08 04:24 | 27.68212 | -80.31344 | 34058 ft | 427 kts | 320° |
| 2026-05-08 04:25 | 27.73069 | -80.35200 | 34072 ft | 427 kts | 320° |
| 2026-05-08 04:25 | 27.77919 | -80.39055 | 34061 ft | 426 kts | 320° |
| 2026-05-08 04:26 | 27.82763 | -80.42915 | 34056 ft | 426 kts | 320° |
| 2026-05-08 04:26 | 27.87604 | -80.46781 | 34050 ft | 426 kts | 320° |
| 2026-05-08 04:27 | 27.92444 | -80.50640 | 34044 ft | 425 kts | 320° |
| 2026-05-08 04:27 | 27.97242 | -80.54475 | 34045 ft | 425 kts | 319° |
| 2026-05-08 04:28 | 28.02068 | -80.58339 | 34039 ft | 425 kts | 319° |
| 2026-05-08 04:28 | 28.06888 | -80.62204 | 34048 ft | 424 kts | 319° |
| 2026-05-08 04:29 | 28.11693 | -80.66055 | 34055 ft | 423 kts | 319° |
| 2026-05-08 04:29 | 28.16452 | -80.69880 | 34034 ft | 422 kts | 319° |
| 2026-05-08 04:30 | 28.21248 | -80.73731 | 34039 ft | 422 kts | 319° |
| 2026-05-08 04:30 | 28.26061 | -80.77586 | 34022 ft | 424 kts | 319° |
| 2026-05-08 04:31 | 28.30838 | -80.81437 | 34011 ft | 420 kts | 319° |
| 2026-05-08 04:31 | 28.35569 | -80.85260 | 34012 ft | 420 kts | 319° |
| 2026-05-08 04:32 | 28.40339 | -80.89113 | 34017 ft | 422 kts | 319° |
| 2026-05-08 04:32 | 28.45126 | -80.92976 | 34023 ft | 422 kts | 319° |
| 2026-05-08 04:33 | 28.49909 | -80.96854 | 34026 ft | 422 kts | 318° |
| 2026-05-08 04:33 | 28.54662 | -81.00706 | 34030 ft | 422 kts | 318° |
| 2026-05-08 04:34 | 28.59445 | -81.04591 | 34026 ft | 422 kts | 318° |
| 2026-05-08 04:34 | 28.64231 | -81.08476 | 34015 ft | 423 kts | 318° |
| 2026-05-08 04:35 | 28.66621 | -81.10418 | 33787 ft | 422 kts | 318° |
| 2026-05-08 04:35 | 28.69012 | -81.12358 | 33530 ft | 421 kts | 318° |
| 2026-05-08 04:35 | 28.71396 | -81.14296 | 33277 ft | 421 kts | 318° |
| 2026-05-08 04:35 | 28.73779 | -81.16241 | 33029 ft | 422 kts | 318° |
| 2026-05-08 04:36 | 28.76161 | -81.18188 | 32777 ft | 422 kts | 318° |
| 2026-05-08 04:36 | 28.78514 | -81.20106 | 32533 ft | 423 kts | 318° |
| 2026-05-08 04:36 | 28.80912 | -81.22060 | 32287 ft | 423 kts | 318° |
| 2026-05-08 04:36 | 28.83307 | -81.24015 | 32033 ft | 424 kts | 318° |
| 2026-05-08 04:37 | 28.85704 | -81.25977 | 31790 ft | 425 kts | 318° |
| 2026-05-08 04:37 | 28.88106 | -81.27942 | 31552 ft | 425 kts | 318° |
| 2026-05-08 04:37 | 28.90512 | -81.29906 | 31321 ft | 426 kts | 318° |
| 2026-05-08 04:37 | 28.92924 | -81.31873 | 31105 ft | 426 kts | 318° |
| 2026-05-08 04:38 | 28.97986 | -81.35381 | 30844 ft | 437 kts | 330° |
| 2026-05-08 04:38 | 29.00939 | -81.36467 | 29758 ft | 457 kts | 341° |
| 2026-05-08 04:38 | 29.04159 | -81.36853 | 28716 ft | 472 kts | 351° |
| 2026-05-08 04:39 | 29.07421 | -81.36997 | 28114 ft | 466 kts | 350° |
| 2026-05-08 04:39 | 29.10651 | -81.37177 | 27452 ft | 463 kts | 349° |
| 2026-05-08 04:39 | 29.13855 | -81.37391 | 26805 ft | 460 kts | 349° |
| 2026-05-08 04:39 | 29.17036 | -81.37627 | 26154 ft | 456 kts | 349° |
| 2026-05-08 04:40 | 29.20194 | -81.37866 | 25506 ft | 453 kts | 349° |
| 2026-05-08 04:40 | 29.23291 | -81.38097 | 24872 ft | 451 kts | 349° |
| 2026-05-08 04:40 | 29.26411 | -81.38324 | 24255 ft | 448 kts | 349° |
| 2026-05-08 04:40 | 29.29514 | -81.38543 | 23611 ft | 446 kts | 349° |
| 2026-05-08 04:41 | 29.32604 | -81.38751 | 22961 ft | 442 kts | 349° |
| 2026-05-08 04:41 | 29.35652 | -81.38949 | 22406 ft | 436 kts | 349° |
| 2026-05-08 04:41 | 29.38657 | -81.39142 | 21868 ft | 429 kts | 349° |
| 2026-05-08 04:41 | 29.41617 | -81.39333 | 21345 ft | 423 kts | 349° |
| 2026-05-08 04:42 | 29.44538 | -81.39526 | 20835 ft | 418 kts | 349° |
| 2026-05-08 04:42 | 29.47387 | -81.39717 | 20348 ft | 413 kts | 349° |
| 2026-05-08 04:42 | 29.50239 | -81.39910 | 19859 ft | 408 kts | 349° |
| 2026-05-08 04:42 | 29.53011 | -81.40334 | 19391 ft | 396 kts | 339° |
| 2026-05-08 04:43 | 29.55569 | -81.41350 | 18946 ft | 384 kts | 328° |
| 2026-05-08 04:43 | 29.57841 | -81.42877 | 18460 ft | 373 kts | 318° |
| 2026-05-08 04:43 | 29.59764 | -81.44821 | 17966 ft | 364 kts | 309° |
| 2026-05-08 04:43 | 29.61519 | -81.46899 | 17502 ft | 360 kts | 310° |
| 2026-05-08 04:44 | 29.63260 | -81.48944 | 17012 ft | 356 kts | 310° |
| 2026-05-08 04:44 | 29.64981 | -81.50956 | 16582 ft | 351 kts | 310° |
| 2026-05-08 04:44 | 29.66662 | -81.52920 | 16131 ft | 347 kts | 310° |
| 2026-05-08 04:44 | 29.68344 | -81.54888 | 15628 ft | 344 kts | 310° |
| 2026-05-08 04:45 | 29.70020 | -81.56838 | 15130 ft | 342 kts | 311° |
| 2026-05-08 04:45 | 29.71695 | -81.58770 | 14623 ft | 340 kts | 311° |
| 2026-05-08 04:45 | 29.73363 | -81.60689 | 14121 ft | 339 kts | 311° |
| 2026-05-08 04:45 | 29.75060 | -81.62569 | 13591 ft | 339 kts | 317° |
| 2026-05-08 04:46 | 29.77044 | -81.64048 | 13064 ft | 343 kts | 330° |
| 2026-05-08 04:46 | 29.79273 | -81.64962 | 12540 ft | 350 kts | 343° |
| 2026-05-08 04:46 | 29.81714 | -81.65310 | 12006 ft | 355 kts | 351° |
| 2026-05-08 04:46 | 29.84176 | -81.65523 | 11458 ft | 354 kts | 352° |
| 2026-05-08 04:47 | 29.86625 | -81.65733 | 10920 ft | 352 kts | 352° |
| 2026-05-08 04:47 | 29.89051 | -81.65946 | 10626 ft | 343 kts | 352° |
| 2026-05-08 04:47 | 29.91383 | -81.66150 | 10503 ft | 329 kts | 352° |
| 2026-05-08 04:47 | 29.93630 | -81.66295 | 10381 ft | 319 kts | 359° |
| 2026-05-08 04:48 | 29.95753 | -81.65810 | 10269 ft | 312 kts | 14° |
| 2026-05-08 04:48 | 29.97777 | -81.65001 | 10120 ft | 305 kts | 21° |
| 2026-05-08 04:48 | 29.99581 | -81.63715 | 9860 ft | 305 kts | 32° |
| 2026-05-08 04:48 | 30.01294 | -81.62279 | 9660 ft | 304 kts | 33° |
| 2026-05-08 04:49 | 30.03000 | -81.60832 | 9453 ft | 304 kts | 33° |
| 2026-05-08 04:49 | 30.04700 | -81.59386 | 9253 ft | 303 kts | 33° |
| 2026-05-08 04:49 | 30.06395 | -81.57944 | 9050 ft | 302 kts | 33° |
| 2026-05-08 04:49 | 30.08085 | -81.56507 | 8855 ft | 301 kts | 33° |
| 2026-05-08 04:50 | 30.09774 | -81.55074 | 8643 ft | 301 kts | 33° |
| 2026-05-08 04:50 | 30.11459 | -81.53648 | 8368 ft | 300 kts | 33° |
| 2026-05-08 04:50 | 30.13140 | -81.52224 | 8112 ft | 299 kts | 32° |
| 2026-05-08 04:50 | 30.14787 | -81.50810 | 7850 ft | 299 kts | 33° |
| 2026-05-08 04:51 | 30.16451 | -81.49375 | 7588 ft | 298 kts | 33° |
| 2026-05-08 04:51 | 30.18113 | -81.47943 | 7326 ft | 297 kts | 33° |
| 2026-05-08 04:51 | 30.19768 | -81.46516 | 7067 ft | 296 kts | 33° |
| 2026-05-08 04:51 | 30.21416 | -81.45097 | 6810 ft | 295 kts | 33° |
| 2026-05-08 04:52 | 30.23065 | -81.43680 | 6554 ft | 295 kts | 33° |
| 2026-05-08 04:52 | 30.24707 | -81.42269 | 6290 ft | 294 kts | 32° |
| 2026-05-08 04:52 | 30.26339 | -81.40866 | 6026 ft | 292 kts | 33° |
| 2026-05-08 04:52 | 30.27964 | -81.39469 | 5752 ft | 290 kts | 33° |
| 2026-05-08 04:53 | 30.29558 | -81.38096 | 5489 ft | 289 kts | 33° |
| 2026-05-08 04:53 | 30.31170 | -81.36713 | 5228 ft | 289 kts | 33° |
| 2026-05-08 04:53 | 30.32782 | -81.35331 | 4965 ft | 287 kts | 32° |
| 2026-05-08 04:53 | 30.34386 | -81.33971 | 4707 ft | 285 kts | 28° |
| 2026-05-08 04:54 | 30.36170 | -81.33105 | 4579 ft | 276 kts | 6° |
| 2026-05-08 04:54 | 30.38049 | -81.33073 | 4455 ft | 267 kts | 344° |
| 2026-05-08 04:54 | 30.39782 | -81.33762 | 4335 ft | 264 kts | 333° |
| 2026-05-08 04:54 | 30.41471 | -81.34571 | 4212 ft | 263 kts | 333° |
| 2026-05-08 04:55 | 30.43140 | -81.35368 | 4048 ft | 264 kts | 333° |
| 2026-05-08 04:55 | 30.44835 | -81.36180 | 3681 ft | 263 kts | 334° |
| 2026-05-08 04:55 | 30.46531 | -81.36991 | 3313 ft | 263 kts | 334° |
| 2026-05-08 04:55 | 30.48223 | -81.37797 | 2919 ft | 264 kts | 334° |
| 2026-05-08 04:56 | 30.49919 | -81.38602 | 2540 ft | 265 kts | 334° |
| 2026-05-08 04:56 | 30.51589 | -81.39399 | 2424 ft | 254 kts | 334° |
| 2026-05-08 04:56 | 30.53186 | -81.40164 | 2310 ft | 243 kts | 334° |
| 2026-05-08 04:56 | 30.54715 | -81.40893 | 2204 ft | 233 kts | 333° |
| 2026-05-08 04:57 | 30.56160 | -81.41621 | 2114 ft | 218 kts | 324° |
| 2026-05-08 04:57 | 30.57120 | -81.42820 | 2016 ft | 202 kts | 292° |
| 2026-05-08 04:57 | 30.57353 | -81.44380 | 2017 ft | 197 kts | 263° |
| 2026-05-08 04:57 | 30.56968 | -81.45914 | 2025 ft | 199 kts | 252° |
| 2026-05-08 04:58 | 30.56497 | -81.47434 | 2020 ft | 201 kts | 252° |
| 2026-05-08 04:58 | 30.56031 | -81.48951 | 1878 ft | 198 kts | 252° |
| 2026-05-08 04:58 | 30.55576 | -81.50451 | 1575 ft | 195 kts | 253° |
| 2026-05-08 04:58 | 30.55127 | -81.51930 | 1425 ft | 195 kts | 252° |
| 2026-05-08 04:59 | 30.54675 | -81.53424 | 1421 ft | 197 kts | 252° |
| 2026-05-08 04:59 | 30.54227 | -81.54904 | 1422 ft | 196 kts | 252° |
| 2026-05-08 04:59 | 30.53771 | -81.56399 | 1413 ft | 197 kts | 253° |
| 2026-05-08 04:59 | 30.53319 | -81.57876 | 1413 ft | 188 kts | 252° |
| 2026-05-08 05:00 | 30.52915 | -81.59198 | 1337 ft | 166 kts | 252° |
| 2026-05-08 05:00 | 30.52542 | -81.60418 | 1180 ft | 158 kts | 253° |
| 2026-05-08 05:00 | 30.52182 | -81.61594 | 974 ft | 153 kts | 252° |
| 2026-05-08 05:00 | 30.51830 | -81.62763 | 805 ft | 154 kts | 251° |
| 2026-05-08 05:01 | 30.51478 | -81.63939 | 617 ft | 153 kts | 252° |
| 2026-05-08 05:01 | 30.51122 | -81.65104 | 472 ft | 152 kts | 250° |
| 2026-05-08 05:01 | 30.50767 | -81.66268 | 221 ft | 153 kts | 249° |
| 2026-05-08 05:01 | 30.50414 | -81.67405 | 51 ft | 150 kts | 250° |
| 2026-05-08 05:02 | 30.50105 | -81.68420 | 39 ft | 104 kts | 250° |
| 2026-05-08 05:02 | 30.49966 | -81.68880 | 36 ft | 17 kts | 251° |
| 2026-05-08 05:02 | 30.49947 | -81.68938 | 36 ft | 9 kts | 249° |
| 2026-05-08 05:02 | 30.49923 | -81.69011 | 37 ft | 10 kts | 249° |
| 2026-05-08 05:03 | 30.49894 | -81.69085 | 38 ft | 11 kts | 241° |
| 2026-05-08 05:03 | 30.49847 | -81.69158 | 38 ft | 12 kts | 226° |
| 2026-05-08 05:03 | 30.49771 | -81.69203 | 37 ft | 13 kts | 189° |
| 2026-05-08 05:03 | 30.49726 | -81.69196 | 36 ft | 7 kts | 159° |
| 2026-05-08 05:04 | 30.49675 | -81.69170 | 34 ft | 9 kts | 155° |
| 2026-05-08 05:04 | 30.49619 | -81.69136 | 35 ft | 10 kts | 143° |
| 2026-05-08 05:04 | 30.49556 | -81.69090 | 35 ft | 11 kts | 149° |
| 2026-05-08 05:04 | 30.49483 | -81.69040 | 35 ft | 13 kts | 150° |
| 2026-05-08 05:05 | 30.49403 | -81.68985 | 35 ft | 14 kts | 143° |
| 2026-05-08 05:05 | 30.49379 | -81.68882 | 35 ft | 14 kts | 84° |
| 2026-05-08 05:05 | 30.49395 | -81.68764 | 35 ft | 15 kts | 66° |
| 2026-05-08 05:05 | 30.49458 | -81.68663 | 34 ft | 16 kts | 58° |
| 2026-05-08 05:06 | 30.49476 | -81.68535 | 35 ft | 16 kts | 85° |
| 2026-05-08 05:06 | 30.49450 | -81.68447 | 35 ft | 10 kts | 151° |
| 2026-05-08 05:06 | 30.49380 | -81.68435 | 34 ft | 9 kts | 175° |
| 2026-05-08 05:06 | 30.49320 | -81.68429 | 35 ft | 9 kts | 175° |
| 2026-05-08 05:07 | 30.49267 | -81.68432 | 35 ft | 6 kts | 209° |
| 2026-05-08 05:07 | 30.49255 | -81.68467 | 35 ft | 4 kts | 259° |
| 2026-05-08 05:07 | 30.49254 | -81.68472 | 35 ft | 1 kts | 261° |
| 2026-05-08 05:07 | 30.49253 | -81.68481 | 35 ft | 2 kts | 265° |
| 2026-05-08 05:08 | 30.49253 | -81.68490 | 35 ft | 0 kts | 266° |